CCA126 RKSI-ZSPD
Flight info
| Callsign | CCA126 |
|---|---|
| Flight time | 1h 37m |
| Altitude | 40000 |
| Route | BOPTA2A BOPTA Z51 BEDES Y711 PONIK A593 LAMEN/K0930F280 A593 AKARA/K0926S0840 A593 PUD |
| Aircraft | A359/H-SDE2E3GHIJ3J4J5LM1ORWXY/LB1D1 |
Departure
| Time | 2026-05-04 14:47 |
|---|---|
| Airport | Incheon International Airport (RKSI) |
Arrival
| Time | 2026-05-04 16:25 |
|---|---|
| Airport | Shanghai Pudong International Airport (ZSPD) |
| Time | Latitude | Longitude | Altitude | Speed | Heading |
|---|---|---|---|---|---|
| 2026-05-04 14:23 | 37.46673 | 126.42939 | 39 ft | 0 kts | 52° |
| 2026-05-04 14:37 | 37.46681 | 126.42952 | 39 ft | 4 kts | 52° |
| 2026-05-04 14:37 | 37.46685 | 126.42957 | 39 ft | 4 kts | 52° |
| 2026-05-04 14:37 | 37.46668 | 126.42930 | 39 ft | 4 kts | 52° |
| 2026-05-04 14:38 | 37.46652 | 126.42903 | 21 ft | 4 kts | 52° |
| 2026-05-04 14:38 | 37.46636 | 126.42877 | 47 ft | 2 kts | 52° |
| 2026-05-04 14:38 | 37.46625 | 126.42853 | 38 ft | 4 kts | 100° |
| 2026-05-04 14:38 | 37.46638 | 126.42831 | 38 ft | 4 kts | 147° |
| 2026-05-04 14:39 | 37.46646 | 126.42825 | 37 ft | 4 kts | 144° |
| 2026-05-04 14:39 | 37.46637 | 126.42833 | 38 ft | 0 kts | 144° |
| 2026-05-04 14:41 | 37.46636 | 126.42833 | 38 ft | 0 kts | 144° |
| 2026-05-04 14:41 | 37.46620 | 126.42849 | 39 ft | 6 kts | 142° |
| 2026-05-04 14:41 | 37.46508 | 126.42948 | 39 ft | 13 kts | 155° |
| 2026-05-04 14:42 | 37.46349 | 126.42838 | 39 ft | 15 kts | 186° |
| 2026-05-04 14:42 | 37.46250 | 126.42896 | 39 ft | 17 kts | 144° |
| 2026-05-04 14:42 | 37.46146 | 126.42988 | 39 ft | 19 kts | 144° |
| 2026-05-04 14:43 | 37.46029 | 126.43092 | 39 ft | 22 kts | 144° |
| 2026-05-04 14:43 | 37.45901 | 126.43206 | 39 ft | 24 kts | 144° |
| 2026-05-04 14:43 | 37.45761 | 126.43330 | 39 ft | 25 kts | 144° |
| 2026-05-04 14:43 | 37.45613 | 126.43463 | 39 ft | 27 kts | 144° |
| 2026-05-04 14:44 | 37.45458 | 126.43603 | 39 ft | 28 kts | 145° |
| 2026-05-04 14:44 | 37.45294 | 126.43749 | 39 ft | 30 kts | 144° |
| 2026-05-04 14:44 | 37.45122 | 126.43898 | 39 ft | 31 kts | 145° |
| 2026-05-04 14:44 | 37.44956 | 126.44045 | 39 ft | 27 kts | 144° |
| 2026-05-04 14:45 | 37.44798 | 126.44187 | 39 ft | 28 kts | 145° |
| 2026-05-04 14:45 | 37.44635 | 126.44333 | 39 ft | 28 kts | 144° |
| 2026-05-04 14:45 | 37.44500 | 126.44380 | 39 ft | 18 kts | 223° |
| 2026-05-04 14:45 | 37.44407 | 126.44267 | 39 ft | 19 kts | 230° |
| 2026-05-04 14:46 | 37.44403 | 126.44120 | 39 ft | 17 kts | 317° |
| 2026-05-04 14:46 | 37.44423 | 126.44102 | 39 ft | 0 kts | 328° |
| 2026-05-04 14:46 | 37.44546 | 126.43993 | 39 ft | 60 kts | 324° |
| 2026-05-04 14:46 | 37.45101 | 126.43500 | 39 ft | 132 kts | 325° |
| 2026-05-04 14:47 | 37.46019 | 126.42689 | 119 ft | 183 kts | 320° |
| 2026-05-04 14:47 | 37.47038 | 126.41745 | 983 ft | 175 kts | 318° |
| 2026-05-04 14:47 | 37.47894 | 126.40658 | 1808 ft | 183 kts | 309° |
| 2026-05-04 14:47 | 37.48791 | 126.39316 | 2201 ft | 214 kts | 307° |
| 2026-05-04 14:48 | 37.49748 | 126.37820 | 2972 ft | 222 kts | 305° |
| 2026-05-04 14:48 | 37.50383 | 126.36076 | 3811 ft | 227 kts | 281° |
| 2026-05-04 14:48 | 37.50529 | 126.34024 | 4395 ft | 243 kts | 271° |
| 2026-05-04 14:48 | 37.50555 | 126.31853 | 5172 ft | 251 kts | 271° |
| 2026-05-04 14:49 | 37.50585 | 126.29633 | 6047 ft | 256 kts | 271° |
| 2026-05-04 14:49 | 37.50625 | 126.27361 | 6915 ft | 262 kts | 272° |
| 2026-05-04 14:49 | 37.50673 | 126.25046 | 7823 ft | 267 kts | 272° |
| 2026-05-04 14:49 | 37.50716 | 126.22689 | 8746 ft | 272 kts | 271° |
| 2026-05-04 14:50 | 37.50451 | 126.20317 | 9700 ft | 278 kts | 253° |
| 2026-05-04 14:50 | 37.49468 | 126.18189 | 10484 ft | 291 kts | 230° |
| 2026-05-04 14:50 | 37.47749 | 126.16670 | 10873 ft | 318 kts | 205° |
| 2026-05-04 14:50 | 37.45596 | 126.15650 | 11262 ft | 341 kts | 200° |
| 2026-05-04 14:51 | 37.43216 | 126.15047 | 11808 ft | 356 kts | 184° |
| 2026-05-04 14:51 | 37.40745 | 126.15469 | 12613 ft | 364 kts | 162° |
| 2026-05-04 14:51 | 37.38521 | 126.17030 | 13462 ft | 371 kts | 140° |
| 2026-05-04 14:51 | 37.36748 | 126.19340 | 14343 ft | 372 kts | 131° |
| 2026-05-04 14:52 | 37.35049 | 126.21822 | 15100 ft | 378 kts | 131° |
| 2026-05-04 14:52 | 37.33319 | 126.24347 | 15809 ft | 383 kts | 131° |
| 2026-05-04 14:52 | 37.31564 | 126.26890 | 16516 ft | 389 kts | 131° |
| 2026-05-04 14:52 | 37.29770 | 126.29471 | 17214 ft | 394 kts | 131° |
| 2026-05-04 14:53 | 37.27953 | 126.32072 | 17977 ft | 398 kts | 131° |
| 2026-05-04 14:53 | 37.26117 | 126.34696 | 18683 ft | 403 kts | 131° |
| 2026-05-04 14:53 | 37.24256 | 126.37351 | 19368 ft | 407 kts | 131° |
| 2026-05-04 14:53 | 37.22370 | 126.40041 | 20072 ft | 411 kts | 131° |
| 2026-05-04 14:54 | 37.20422 | 126.42692 | 20769 ft | 415 kts | 136° |
| 2026-05-04 14:54 | 37.18068 | 126.44803 | 21461 ft | 419 kts | 153° |
| 2026-05-04 14:54 | 37.15367 | 126.46236 | 22153 ft | 423 kts | 159° |
| 2026-05-04 14:54 | 37.12591 | 126.47535 | 22844 ft | 428 kts | 160° |
| 2026-05-04 14:55 | 37.09781 | 126.48845 | 23523 ft | 432 kts | 160° |
| 2026-05-04 14:55 | 37.06984 | 126.50158 | 24101 ft | 437 kts | 160° |
| 2026-05-04 14:55 | 37.04115 | 126.51470 | 24694 ft | 440 kts | 162° |
| 2026-05-04 14:55 | 37.01166 | 126.52537 | 25283 ft | 443 kts | 166° |
| 2026-05-04 14:56 | 36.98173 | 126.53522 | 25840 ft | 447 kts | 167° |
| 2026-05-04 14:56 | 36.95149 | 126.54510 | 26412 ft | 451 kts | 167° |
| 2026-05-04 14:56 | 36.92085 | 126.55513 | 26975 ft | 455 kts | 167° |
| 2026-05-04 14:56 | 36.89012 | 126.56522 | 27525 ft | 458 kts | 167° |
| 2026-05-04 14:57 | 36.85911 | 126.57543 | 28092 ft | 462 kts | 167° |
| 2026-05-04 14:57 | 36.82789 | 126.58570 | 28640 ft | 466 kts | 168° |
| 2026-05-04 14:57 | 36.79645 | 126.59602 | 29177 ft | 469 kts | 168° |
| 2026-05-04 14:57 | 36.76505 | 126.60633 | 29681 ft | 473 kts | 168° |
| 2026-05-04 14:58 | 36.73310 | 126.61683 | 30176 ft | 477 kts | 168° |
| 2026-05-04 14:58 | 36.70091 | 126.62747 | 30572 ft | 481 kts | 168° |
| 2026-05-04 14:58 | 36.66847 | 126.63834 | 30981 ft | 484 kts | 168° |
| 2026-05-04 14:58 | 36.64648 | 126.64575 | 31251 ft | 486 kts | 168° |
| 2026-05-04 14:59 | 36.60308 | 126.66040 | 31738 ft | 490 kts | 169° |
| 2026-05-04 14:59 | 36.57002 | 126.67153 | 32097 ft | 493 kts | 169° |
| 2026-05-04 14:59 | 36.50351 | 126.69384 | 32802 ft | 498 kts | 169° |
| 2026-05-04 15:00 | 36.47016 | 126.70500 | 33143 ft | 500 kts | 169° |
| 2026-05-04 15:00 | 36.44789 | 126.71245 | 33445 ft | 500 kts | 169° |
| 2026-05-04 15:00 | 36.41431 | 126.72369 | 33968 ft | 498 kts | 169° |
| 2026-05-04 15:01 | 36.34749 | 126.74613 | 34761 ft | 496 kts | 170° |
| 2026-05-04 15:01 | 36.30330 | 126.76105 | 35225 ft | 496 kts | 170° |
| 2026-05-04 15:01 | 36.28081 | 126.76863 | 35466 ft | 496 kts | 170° |
| 2026-05-04 15:01 | 36.24747 | 126.77986 | 35787 ft | 496 kts | 171° |
| 2026-05-04 15:02 | 36.21415 | 126.79108 | 36110 ft | 496 kts | 171° |
| 2026-05-04 15:02 | 36.18068 | 126.80167 | 36426 ft | 493 kts | 174° |
| 2026-05-04 15:02 | 36.14698 | 126.80757 | 36743 ft | 485 kts | 182° |
| 2026-05-04 15:02 | 36.11399 | 126.80773 | 37098 ft | 478 kts | 189° |
| 2026-05-04 15:03 | 36.08080 | 126.80530 | 37402 ft | 476 kts | 191° |
| 2026-05-04 15:03 | 36.04783 | 126.80197 | 37706 ft | 475 kts | 192° |
| 2026-05-04 15:03 | 36.01487 | 126.79823 | 38024 ft | 474 kts | 192° |
| 2026-05-04 15:03 | 35.98196 | 126.79438 | 38333 ft | 474 kts | 192° |
| 2026-05-04 15:04 | 35.94917 | 126.79058 | 38614 ft | 473 kts | 192° |
| 2026-05-04 15:04 | 35.91642 | 126.78688 | 38903 ft | 473 kts | 192° |
| 2026-05-04 15:04 | 35.88366 | 126.78328 | 39110 ft | 473 kts | 192° |
| 2026-05-04 15:04 | 35.85090 | 126.77973 | 39297 ft | 473 kts | 192° |
| 2026-05-04 15:05 | 35.81807 | 126.77616 | 39493 ft | 473 kts | 192° |
| 2026-05-04 15:05 | 35.78526 | 126.77259 | 39663 ft | 473 kts | 192° |
| 2026-05-04 15:05 | 35.75245 | 126.76902 | 39868 ft | 473 kts | 192° |
| 2026-05-04 15:05 | 35.71962 | 126.76547 | 40052 ft | 473 kts | 192° |
| 2026-05-04 15:06 | 35.65392 | 126.75836 | 40152 ft | 474 kts | 192° |
| 2026-05-04 15:07 | 35.55553 | 126.74777 | 40152 ft | 478 kts | 192° |
| 2026-05-04 15:07 | 35.48871 | 126.74054 | 40148 ft | 485 kts | 192° |
| 2026-05-04 15:08 | 35.42139 | 126.73336 | 40150 ft | 489 kts | 192° |
| 2026-05-04 15:08 | 35.35358 | 126.72613 | 40155 ft | 488 kts | 192° |
| 2026-05-04 15:09 | 35.28584 | 126.71892 | 40152 ft | 488 kts | 192° |
| 2026-05-04 15:09 | 35.21811 | 126.71169 | 40154 ft | 488 kts | 192° |
| 2026-05-04 15:10 | 35.11672 | 126.70093 | 40153 ft | 487 kts | 192° |
| 2026-05-04 15:11 | 35.01592 | 126.69023 | 40155 ft | 486 kts | 192° |
| 2026-05-04 15:11 | 34.94838 | 126.68305 | 40154 ft | 486 kts | 192° |
| 2026-05-04 15:12 | 34.88084 | 126.67590 | 40155 ft | 487 kts | 192° |
| 2026-05-04 15:12 | 34.81331 | 126.66876 | 40154 ft | 487 kts | 192° |
| 2026-05-04 15:13 | 34.74637 | 126.66171 | 40157 ft | 486 kts | 192° |
| 2026-05-04 15:13 | 34.67902 | 126.65463 | 40156 ft | 485 kts | 192° |
| 2026-05-04 15:14 | 34.61162 | 126.64754 | 40157 ft | 485 kts | 192° |
| 2026-05-04 15:14 | 34.54449 | 126.64050 | 40158 ft | 484 kts | 192° |
| 2026-05-04 15:15 | 34.47755 | 126.63349 | 40156 ft | 482 kts | 192° |
| 2026-05-04 15:15 | 34.41050 | 126.62647 | 40162 ft | 482 kts | 192° |
| 2026-05-04 15:16 | 34.31038 | 126.61604 | 40160 ft | 481 kts | 192° |
| 2026-05-04 15:17 | 34.21083 | 126.60571 | 40163 ft | 481 kts | 192° |
| 2026-05-04 15:17 | 34.11097 | 126.59528 | 40165 ft | 478 kts | 193° |
| 2026-05-04 15:18 | 34.04464 | 126.58835 | 40169 ft | 478 kts | 193° |
| 2026-05-04 15:19 | 33.94532 | 126.57804 | 40163 ft | 477 kts | 193° |
| 2026-05-04 15:19 | 33.84670 | 126.56565 | 40165 ft | 468 kts | 200° |
| 2026-05-04 15:20 | 33.78512 | 126.54340 | 40152 ft | 459 kts | 206° |
| 2026-05-04 15:20 | 33.72557 | 126.51775 | 40182 ft | 457 kts | 207° |
| 2026-05-04 15:21 | 33.66573 | 126.49140 | 40189 ft | 457 kts | 207° |
| 2026-05-04 15:22 | 33.57589 | 126.45227 | 40176 ft | 458 kts | 207° |
| 2026-05-04 15:22 | 33.48599 | 126.41350 | 40184 ft | 457 kts | 207° |
| 2026-05-04 15:23 | 33.42613 | 126.38775 | 40162 ft | 457 kts | 207° |
| 2026-05-04 15:23 | 33.36639 | 126.36215 | 40179 ft | 455 kts | 207° |
| 2026-05-04 15:24 | 33.24758 | 126.31108 | 40173 ft | 455 kts | 207° |
| 2026-05-04 15:25 | 33.18804 | 126.28558 | 40170 ft | 454 kts | 208° |
| 2026-05-04 15:26 | 33.09891 | 126.24748 | 40185 ft | 453 kts | 208° |
| 2026-05-04 15:26 | 33.00964 | 126.20940 | 40170 ft | 455 kts | 207° |
| 2026-05-04 15:27 | 32.92056 | 126.17121 | 40170 ft | 455 kts | 208° |
| 2026-05-04 15:28 | 32.83129 | 126.13291 | 40165 ft | 454 kts | 208° |
| 2026-05-04 15:29 | 32.74220 | 126.09480 | 40169 ft | 453 kts | 208° |
| 2026-05-04 15:30 | 32.53483 | 126.00641 | 40171 ft | 452 kts | 208° |
| 2026-05-04 15:31 | 32.44613 | 125.96877 | 40162 ft | 451 kts | 208° |
| 2026-05-04 15:32 | 32.29882 | 125.90645 | 40174 ft | 447 kts | 208° |
| 2026-05-04 15:34 | 32.15283 | 125.84490 | 40174 ft | 444 kts | 208° |
| 2026-05-04 15:34 | 32.06910 | 125.80228 | 40163 ft | 429 kts | 220° |
| 2026-05-04 15:35 | 32.02424 | 125.75800 | 40174 ft | 415 kts | 233° |
| 2026-05-04 15:35 | 32.00646 | 125.73131 | 40184 ft | 411 kts | 240° |
| 2026-05-04 15:36 | 31.97326 | 125.63930 | 40175 ft | 408 kts | 255° |
| 2026-05-04 15:36 | 31.95889 | 125.57459 | 40176 ft | 408 kts | 256° |
| 2026-05-04 15:37 | 31.94499 | 125.51024 | 40167 ft | 408 kts | 255° |
| 2026-05-04 15:37 | 31.93074 | 125.44565 | 40178 ft | 408 kts | 255° |
| 2026-05-04 15:38 | 31.91628 | 125.38108 | 40180 ft | 408 kts | 255° |
| 2026-05-04 15:38 | 31.90171 | 125.31636 | 40174 ft | 408 kts | 255° |
| 2026-05-04 15:39 | 31.88710 | 125.25165 | 40173 ft | 408 kts | 255° |
| 2026-05-04 15:40 | 31.86521 | 125.15489 | 40175 ft | 410 kts | 255° |
| 2026-05-04 15:40 | 31.85051 | 125.09010 | 40165 ft | 409 kts | 255° |
| 2026-05-04 15:41 | 31.83580 | 125.02545 | 40169 ft | 408 kts | 255° |
| 2026-05-04 15:41 | 31.82133 | 124.96129 | 40179 ft | 408 kts | 256° |
| 2026-05-04 15:42 | 31.80739 | 124.89646 | 40170 ft | 410 kts | 256° |
| 2026-05-04 15:42 | 31.79347 | 124.83144 | 40169 ft | 410 kts | 256° |
| 2026-05-04 15:43 | 31.77945 | 124.76662 | 40169 ft | 410 kts | 256° |
| 2026-05-04 15:43 | 31.76530 | 124.70165 | 40153 ft | 410 kts | 256° |
| 2026-05-04 15:44 | 31.75110 | 124.63668 | 40169 ft | 410 kts | 256° |
| 2026-05-04 15:44 | 31.73688 | 124.57181 | 40176 ft | 410 kts | 256° |
| 2026-05-04 15:45 | 31.72262 | 124.50691 | 40169 ft | 410 kts | 256° |
| 2026-05-04 15:45 | 31.70832 | 124.44195 | 40171 ft | 410 kts | 256° |
| 2026-05-04 15:46 | 31.69404 | 124.37730 | 40163 ft | 411 kts | 256° |
| 2026-05-04 15:46 | 31.67966 | 124.31233 | 40161 ft | 412 kts | 256° |
| 2026-05-04 15:47 | 31.66520 | 124.24717 | 40157 ft | 411 kts | 255° |
| 2026-05-04 15:47 | 31.65750 | 124.21256 | 40182 ft | 410 kts | 255° |
| 2026-05-04 15:48 | 31.64441 | 124.15380 | 40157 ft | 410 kts | 256° |
| 2026-05-04 15:48 | 31.62511 | 124.06744 | 40153 ft | 411 kts | 256° |
| 2026-05-04 15:49 | 31.60822 | 123.99207 | 40163 ft | 411 kts | 255° |
| 2026-05-04 15:49 | 31.59637 | 123.93813 | 40168 ft | 411 kts | 256° |
| 2026-05-04 15:50 | 31.58217 | 123.87287 | 40154 ft | 413 kts | 256° |
| 2026-05-04 15:50 | 31.56791 | 123.80756 | 40155 ft | 413 kts | 256° |
| 2026-05-04 15:51 | 31.55357 | 123.74225 | 40150 ft | 413 kts | 256° |
| 2026-05-04 15:51 | 31.53920 | 123.67704 | 40147 ft | 412 kts | 256° |
| 2026-05-04 15:52 | 31.53208 | 123.64478 | 39652 ft | 407 kts | 256° |
| 2026-05-04 15:52 | 31.52493 | 123.61244 | 38754 ft | 412 kts | 256° |
| 2026-05-04 15:52 | 31.51779 | 123.58019 | 37736 ft | 415 kts | 256° |
| 2026-05-04 15:52 | 31.51051 | 123.54737 | 36815 ft | 417 kts | 256° |
| 2026-05-04 15:53 | 31.50319 | 123.51436 | 36048 ft | 419 kts | 256° |
| 2026-05-04 15:53 | 31.49595 | 123.48124 | 35289 ft | 422 kts | 257° |
| 2026-05-04 15:53 | 31.48952 | 123.44750 | 34432 ft | 425 kts | 257° |
| 2026-05-04 15:53 | 31.48330 | 123.41358 | 33443 ft | 428 kts | 257° |
| 2026-05-04 15:54 | 31.47695 | 123.37934 | 32448 ft | 429 kts | 258° |
| 2026-05-04 15:54 | 31.47054 | 123.34519 | 31512 ft | 430 kts | 258° |
| 2026-05-04 15:54 | 31.46406 | 123.31091 | 30520 ft | 432 kts | 258° |
| 2026-05-04 15:54 | 31.45753 | 123.27650 | 29388 ft | 435 kts | 258° |
| 2026-05-04 15:55 | 31.45096 | 123.24204 | 28513 ft | 432 kts | 258° |
| 2026-05-04 15:55 | 31.44444 | 123.20789 | 27798 ft | 427 kts | 258° |
| 2026-05-04 15:55 | 31.43795 | 123.17398 | 27075 ft | 423 kts | 258° |
| 2026-05-04 15:55 | 31.43154 | 123.14053 | 26349 ft | 420 kts | 258° |
| 2026-05-04 15:56 | 31.42515 | 123.10727 | 25608 ft | 418 kts | 258° |
| 2026-05-04 15:56 | 31.41885 | 123.07450 | 24873 ft | 416 kts | 258° |
| 2026-05-04 15:56 | 31.41249 | 123.04147 | 24146 ft | 415 kts | 258° |
| 2026-05-04 15:56 | 31.40611 | 123.00844 | 23367 ft | 414 kts | 258° |
| 2026-05-04 15:57 | 31.39978 | 122.97566 | 22590 ft | 411 kts | 258° |
| 2026-05-04 15:57 | 31.39349 | 122.94313 | 21838 ft | 407 kts | 258° |
| 2026-05-04 15:57 | 31.38726 | 122.91097 | 21106 ft | 403 kts | 258° |
| 2026-05-04 15:57 | 31.38115 | 122.87947 | 20377 ft | 400 kts | 258° |
| 2026-05-04 15:58 | 31.37491 | 122.84737 | 19621 ft | 398 kts | 257° |
| 2026-05-04 15:58 | 31.36885 | 122.81621 | 18886 ft | 397 kts | 257° |
| 2026-05-04 15:58 | 31.36227 | 122.78482 | 18091 ft | 396 kts | 253° |
| 2026-05-04 15:58 | 31.35168 | 122.75525 | 17314 ft | 394 kts | 244° |
| 2026-05-04 15:59 | 31.33870 | 122.72711 | 16544 ft | 392 kts | 242° |
| 2026-05-04 15:59 | 31.32550 | 122.69924 | 15773 ft | 390 kts | 242° |
| 2026-05-04 15:59 | 31.31241 | 122.67155 | 15006 ft | 389 kts | 242° |
| 2026-05-04 15:59 | 31.29933 | 122.64383 | 14219 ft | 388 kts | 242° |
| 2026-05-04 16:00 | 31.28633 | 122.61624 | 13381 ft | 388 kts | 242° |
| 2026-05-04 16:00 | 31.27334 | 122.58868 | 12576 ft | 386 kts | 242° |
| 2026-05-04 16:00 | 31.26044 | 122.56129 | 11790 ft | 383 kts | 242° |
| 2026-05-04 16:00 | 31.24761 | 122.53407 | 11047 ft | 381 kts | 243° |
| 2026-05-04 16:01 | 31.23509 | 122.50756 | 10852 ft | 362 kts | 243° |
| 2026-05-04 16:01 | 31.22327 | 122.48254 | 10752 ft | 343 kts | 243° |
| 2026-05-04 16:01 | 31.21206 | 122.45880 | 10634 ft | 325 kts | 243° |
| 2026-05-04 16:01 | 31.20139 | 122.43623 | 10543 ft | 309 kts | 243° |
| 2026-05-04 16:02 | 31.19125 | 122.41477 | 10447 ft | 294 kts | 243° |
| 2026-05-04 16:02 | 31.18160 | 122.39434 | 10337 ft | 282 kts | 243° |
| 2026-05-04 16:02 | 31.16318 | 122.35538 | 9778 ft | 278 kts | 243° |
| 2026-05-04 16:03 | 31.15370 | 122.33529 | 9341 ft | 286 kts | 243° |
| 2026-05-04 16:03 | 31.14405 | 122.31489 | 8938 ft | 286 kts | 243° |
| 2026-05-04 16:03 | 31.13442 | 122.29462 | 8480 ft | 285 kts | 243° |
| 2026-05-04 16:03 | 31.12483 | 122.27439 | 8043 ft | 284 kts | 243° |
| 2026-05-04 16:04 | 31.11547 | 122.25470 | 7893 ft | 271 kts | 244° |
| 2026-05-04 16:04 | 31.09779 | 122.21748 | 7369 ft | 258 kts | 243° |
| 2026-05-04 16:04 | 31.08944 | 122.19896 | 7002 ft | 256 kts | 249° |
| 2026-05-04 16:05 | 31.08571 | 122.17906 | 6808 ft | 249 kts | 268° |
| 2026-05-04 16:05 | 31.08501 | 122.15883 | 6723 ft | 250 kts | 270° |
| 2026-05-04 16:05 | 31.08415 | 122.11821 | 6557 ft | 250 kts | 270° |
| 2026-05-04 16:06 | 31.08369 | 122.09828 | 6454 ft | 249 kts | 270° |
| 2026-05-04 16:06 | 31.08235 | 122.04433 | 6205 ft | 248 kts | 270° |
| 2026-05-04 16:07 | 31.08167 | 122.01771 | 6075 ft | 247 kts | 270° |
| 2026-05-04 16:07 | 31.10175 | 121.96740 | 5855 ft | 242 kts | 334° |
| 2026-05-04 16:08 | 31.11757 | 121.96062 | 5762 ft | 243 kts | 341° |
| 2026-05-04 16:08 | 31.16616 | 121.94300 | 5572 ft | 244 kts | 341° |
| 2026-05-04 16:09 | 31.19843 | 121.93100 | 5435 ft | 243 kts | 340° |
| 2026-05-04 16:09 | 31.23085 | 121.91881 | 5296 ft | 246 kts | 340° |
| 2026-05-04 16:10 | 31.26333 | 121.90660 | 5170 ft | 244 kts | 340° |
| 2026-05-04 16:11 | 31.31185 | 121.88831 | 4970 ft | 245 kts | 340° |
| 2026-05-04 16:11 | 31.32813 | 121.88219 | 4908 ft | 245 kts | 340° |
| 2026-05-04 16:12 | 31.37677 | 121.86382 | 4696 ft | 244 kts | 340° |
| 2026-05-04 16:12 | 31.42511 | 121.84544 | 4477 ft | 235 kts | 337° |
| 2026-05-04 16:13 | 31.44503 | 121.82027 | 4227 ft | 214 kts | 278° |
| 2026-05-04 16:13 | 31.44463 | 121.80501 | 4145 ft | 214 kts | 259° |
| 2026-05-04 16:17 | 31.44286 | 121.79484 | 4076 ft | 215 kts | 257° |
| 2026-05-04 16:18 | 31.43309 | 121.74545 | 3771 ft | 194 kts | 256° |
| 2026-05-04 16:18 | 31.42815 | 121.73132 | 3638 ft | 186 kts | 234° |
| 2026-05-04 16:19 | 31.39192 | 121.72835 | 3448 ft | 193 kts | 165° |
| 2026-05-04 16:19 | 31.36638 | 121.73806 | 3355 ft | 191 kts | 165° |
| 2026-05-04 16:20 | 31.32850 | 121.75235 | 3108 ft | 188 kts | 165° |
| 2026-05-04 16:20 | 31.30365 | 121.76174 | 2774 ft | 189 kts | 165° |
| 2026-05-04 16:21 | 31.26715 | 121.77562 | 2213 ft | 180 kts | 165° |
| 2026-05-04 16:22 | 31.24366 | 121.78454 | 1736 ft | 173 kts | 166° |
| 2026-05-04 16:22 | 31.21248 | 121.79636 | 1103 ft | 145 kts | 165° |
| 2026-05-04 16:23 | 31.18690 | 121.80605 | 615 ft | 124 kts | 162° |
| 2026-05-04 16:24 | 31.15338 | 121.81871 | 29 ft | 117 kts | 161° |
| 2026-05-04 16:25 | 31.14372 | 121.82236 | 29 ft | 40 kts | 162° |
| 2026-05-04 16:26 | 31.13656 | 121.82190 | 29 ft | 14 kts | 249° |
| 2026-05-04 16:26 | 31.13641 | 121.81809 | 29 ft | 20 kts | 339° |
| 2026-05-04 16:27 | 31.13746 | 121.81657 | 29 ft | 6 kts | 251° |
| 2026-05-04 16:28 | 31.13675 | 121.81409 | 29 ft | 13 kts | 252° |
| 2026-05-04 16:28 | 31.13662 | 121.81358 | 29 ft | 0 kts | 252° |
| 2026-05-04 16:29 | 31.13661 | 121.81356 | 29 ft | 0 kts | 252° |